sensor_id;sensor_type;location;lat;lon;timestamp;P1;durP1;ratioP1;P2;durP2;ratioP2
7051;SDS011;3567;52.444;13.556;2024-01-15T00:00:03;12.73;;;9.13;;
7051;SDS011;3567;52.444;13.556;2024-01-15T00:02:29;14.10;;;9.93;;
7051;SDS011;3567;52.444;13.556;2024-01-15T00:04:55;16.08;;;9.20;;
7051;SDS011;3567;52.444;13.556;2024-01-15T00:07:20;16.55;;;11.40;;
7051;SDS011;3567;52.444;13.556;2024-01-15T00:09:45;14.40;;;10.57;;
7051;SDS011;3567;52.444;13.556;2024-01-15T00:12:11;14.20;;;9.98;;
7051;SDS011;3567;52.444;13.556;2024-01-15T00:14:36;15.15;;;10.13;;
7051;SDS011;3567;52.444;13.556;2024-01-15T00:17:01;14.23;;;9.95;;
7051;SDS011;3567;52.444;13.556;2024-01-15T00:19:27;18.15;;;10.68;;
7051;SDS011;3567;52.444;13.556;2024-01-15T00:21:52;12.65;;;9.38;;
7051;SDS011;3567;52.444;13.556;2024-01-15T00:24:18;16.83;;;10.32;;
7051;SDS011;3567;52.444;13.556;2024-01-15T00:26:44;15.27;;;11.10;;
7051;SDS011;3567;52.444;13.556;2024-01-15T00:29:09;16.40;;;11.57;;
7051;SDS011;3567;52.444;13.556;2024-01-15T00:31:35;16.20;;;10.68;;
7051;SDS011;3567;52.444;13.556;2024-01-15T00:34:01;14.88;;;10.63;;
7051;SDS011;3567;52.444;13.556;2024-01-15T00:36:26;17.40;;;10.60;;
7051;SDS011;3567;52.444;13.556;2024-01-15T00:38:52;16.67;;;10.57;;
7051;SDS011;3567;52.444;13.556;2024-01-15T00:41:18;15.30;;;10.77;;
7051;SDS011;3567;52.444;13.556;2024-01-15T00:43:44;15.32;;;10.75;;
7051;SDS011;3567;52.444;13.556;2024-01-15T00:46:10;14.40;;;10.38;;
7051;SDS011;3567;52.444;13.556;2024-01-15T00:48:35;17.45;;;10.88;;
7051;SDS011;3567;52.444;13.556;2024-01-15T00:51:01;18.75;;;10.98;;
7051;SDS011;3567;52.444;13.556;2024-01-15T00:53:26;21.95;;;10.70;;
7051;SDS011;3567;52.444;13.556;2024-01-15T00:55:52;15.43;;;9.77;;
7051;SDS011;3567;52.444;13.556;2024-01-15T00:58:18;14.55;;;10.07;;
7051;SDS011;3567;52.444;13.556;2024-01-15T01:00:44;16.00;;;10.73;;
7051;SDS011;3567;52.444;13.556;2024-01-15T01:03:09;13.38;;;9.80;;
7051;SDS011;3567;52.444;13.556;2024-01-15T01:05:34;15.13;;;10.38;;
7051;SDS011;3567;52.444;13.556;2024-01-15T01:08:00;17.08;;;10.50;;
7051;SDS011;3567;52.444;13.556;2024-01-15T01:10:25;13.30;;;10.18;;
7051;SDS011;3567;52.444;13.556;2024-01-15T01:12:51;17.77;;;10.20;;
7051;SDS011;3567;52.444;13.556;2024-01-15T01:15:17;16.60;;;11.05;;
7051;SDS011;3567;52.444;13.556;2024-01-15T01:17:42;16.70;;;10.20;;
7051;SDS011;3567;52.444;13.556;2024-01-15T01:20:07;15.70;;;9.60;;
7051;SDS011;3567;52.444;13.556;2024-01-15T01:22:34;16.27;;;10.15;;
7051;SDS011;3567;52.444;13.556;2024-01-15T01:25:00;15.18;;;9.35;;
7051;SDS011;3567;52.444;13.556;2024-01-15T01:27:25;14.60;;;9.75;;
7051;SDS011;3567;52.444;13.556;2024-01-15T01:29:50;16.17;;;10.60;;
7051;SDS011;3567;52.444;13.556;2024-01-15T01:32:16;15.43;;;10.40;;
7051;SDS011;3567;52.444;13.556;2024-01-15T01:34:42;16.15;;;10.88;;
7051;SDS011;3567;52.444;13.556;2024-01-15T01:37:08;15.98;;;10.15;;
7051;SDS011;3567;52.444;13.556;2024-01-15T01:39:34;21.58;;;11.63;;
7051;SDS011;3567;52.444;13.556;2024-01-15T01:41:59;14.27;;;10.55;;
7051;SDS011;3567;52.444;13.556;2024-01-15T01:44:24;16.90;;;9.73;;
7051;SDS011;3567;52.444;13.556;2024-01-15T01:46:50;20.35;;;9.93;;
7051;SDS011;3567;52.444;13.556;2024-01-15T01:49:15;15.27;;;10.18;;
7051;SDS011;3567;52.444;13.556;2024-01-15T01:51:41;14.50;;;9.60;;
7051;SDS011;3567;52.444;13.556;2024-01-15T01:54:07;15.38;;;9.80;;
7051;SDS011;3567;52.444;13.556;2024-01-15T01:56:34;18.35;;;10.55;;
7051;SDS011;3567;52.444;13.556;2024-01-15T01:59:00;24.77;;;11.70;;
7051;SDS011;3567;52.444;13.556;2024-01-15T02:01:27;17.38;;;11.15;;
7051;SDS011;3567;52.444;13.556;2024-01-15T02:03:53;18.27;;;11.43;;
7051;SDS011;3567;52.444;13.556;2024-01-15T02:06:21;22.60;;;11.90;;
7051;SDS011;3567;52.444;13.556;2024-01-15T02:08:47;23.33;;;12.68;;
7051;SDS011;3567;52.444;13.556;2024-01-15T02:11:13;23.85;;;12.32;;
7051;SDS011;3567;52.444;13.556;2024-01-15T02:13:38;18.35;;;11.85;;
7051;SDS011;3567;52.444;13.556;2024-01-15T02:16:04;20.08;;;12.20;;
7051;SDS011;3567;52.444;13.556;2024-01-15T02:18:38;19.77;;;11.23;;
7051;SDS011;3567;52.444;13.556;2024-01-15T02:21:05;23.83;;;12.40;;
7051;SDS011;3567;52.444;13.556;2024-01-15T02:23:30;18.52;;;11.43;;
7051;SDS011;3567;52.444;13.556;2024-01-15T02:25:56;19.83;;;11.70;;
7051;SDS011;3567;52.444;13.556;2024-01-15T02:28:21;17.27;;;10.90;;
7051;SDS011;3567;52.444;13.556;2024-01-15T02:30:47;18.63;;;10.40;;
7051;SDS011;3567;52.444;13.556;2024-01-15T02:33:12;19.67;;;10.68;;
7051;SDS011;3567;52.444;13.556;2024-01-15T02:35:38;14.30;;;9.82;;
7051;SDS011;3567;52.444;13.556;2024-01-15T02:38:03;16.00;;;9.48;;
7051;SDS011;3567;52.444;13.556;2024-01-15T02:40:33;21.38;;;11.50;;
7051;SDS011;3567;52.444;13.556;2024-01-15T02:42:59;15.63;;;9.80;;
7051;SDS011;3567;52.444;13.556;2024-01-15T02:45:24;17.88;;;9.75;;
7051;SDS011;3567;52.444;13.556;2024-01-15T02:47:50;15.82;;;9.75;;
7051;SDS011;3567;52.444;13.556;2024-01-15T02:50:15;18.70;;;9.27;;
7051;SDS011;3567;52.444;13.556;2024-01-15T02:52:41;14.82;;;9.23;;
7051;SDS011;3567;52.444;13.556;2024-01-15T02:55:07;17.00;;;8.90;;
7051;SDS011;3567;52.444;13.556;2024-01-15T02:57:33;13.70;;;8.93;;
7051;SDS011;3567;52.444;13.556;2024-01-15T02:59:58;14.00;;;8.10;;
7051;SDS011;3567;52.444;13.556;2024-01-15T03:02:24;14.95;;;8.60;;
7051;SDS011;3567;52.444;13.556;2024-01-15T03:04:49;14.20;;;8.18;;
7051;SDS011;3567;52.444;13.556;2024-01-15T03:07:15;14.98;;;7.93;;
7051;SDS011;3567;52.444;13.556;2024-01-15T03:09:40;14.20;;;9.02;;
7051;SDS011;3567;52.444;13.556;2024-01-15T03:12:06;17.48;;;9.55;;
7051;SDS011;3567;52.444;13.556;2024-01-15T03:14:31;13.55;;;8.27;;
7051;SDS011;3567;52.444;13.556;2024-01-15T03:16:57;15.57;;;9.07;;
7051;SDS011;3567;52.444;13.556;2024-01-15T03:19:22;12.88;;;9.18;;
7051;SDS011;3567;52.444;13.556;2024-01-15T03:21:47;14.80;;;8.52;;
7051;SDS011;3567;52.444;13.556;2024-01-15T03:24:13;13.82;;;8.80;;
7051;SDS011;3567;52.444;13.556;2024-01-15T03:26:38;12.07;;;8.38;;
7051;SDS011;3567;52.444;13.556;2024-01-15T03:29:04;11.02;;;7.93;;
7051;SDS011;3567;52.444;13.556;2024-01-15T03:31:29;13.43;;;7.63;;
7051;SDS011;3567;52.444;13.556;2024-01-15T03:33:55;10.95;;;7.65;;
7051;SDS011;3567;52.444;13.556;2024-01-15T03:36:20;11.55;;;7.50;;
7051;SDS011;3567;52.444;13.556;2024-01-15T03:38:45;9.90;;;7.45;;
7051;SDS011;3567;52.444;13.556;2024-01-15T03:41:11;15.27;;;7.38;;
7051;SDS011;3567;52.444;13.556;2024-01-15T03:43:37;14.13;;;7.57;;
7051;SDS011;3567;52.444;13.556;2024-01-15T03:46:02;11.88;;;6.65;;
7051;SDS011;3567;52.444;13.556;2024-01-15T03:48:29;11.82;;;7.22;;
7051;SDS011;3567;52.444;13.556;2024-01-15T03:50:55;12.38;;;6.38;;
7051;SDS011;3567;52.444;13.556;2024-01-15T03:53:20;14.32;;;6.53;;
7051;SDS011;3567;52.444;13.556;2024-01-15T03:55:45;9.32;;;5.65;;
7051;SDS011;3567;52.444;13.556;2024-01-15T03:58:11;13.15;;;5.78;;
7051;SDS011;3567;52.444;13.556;2024-01-15T04:00:36;16.33;;;6.30;;
7051;SDS011;3567;52.444;13.556;2024-01-15T04:03:02;13.15;;;7.35;;
7051;SDS011;3567;52.444;13.556;2024-01-15T04:05:27;9.90;;;5.03;;
7051;SDS011;3567;52.444;13.556;2024-01-15T04:07:52;11.43;;;5.78;;
7051;SDS011;3567;52.444;13.556;2024-01-15T04:10:18;15.80;;;6.15;;
7051;SDS011;3567;52.444;13.556;2024-01-15T04:12:43;9.18;;;6.35;;
7051;SDS011;3567;52.444;13.556;2024-01-15T04:15:11;16.85;;;6.10;;
7051;SDS011;3567;52.444;13.556;2024-01-15T04:17:37;12.30;;;4.97;;
7051;SDS011;3567;52.444;13.556;2024-01-15T04:20:02;9.73;;;5.75;;
7051;SDS011;3567;52.444;13.556;2024-01-15T04:22:28;13.15;;;6.18;;
7051;SDS011;3567;52.444;13.556;2024-01-15T04:24:53;10.90;;;5.85;;
7051;SDS011;3567;52.444;13.556;2024-01-15T04:27:19;13.05;;;5.22;;
7051;SDS011;3567;52.444;13.556;2024-01-15T04:29:44;14.27;;;5.68;;
7051;SDS011;3567;52.444;13.556;2024-01-15T04:32:09;9.98;;;5.55;;
7051;SDS011;3567;52.444;13.556;2024-01-15T04:34:35;10.18;;;4.55;;
7051;SDS011;3567;52.444;13.556;2024-01-15T04:37:00;13.13;;;5.13;;
7051;SDS011;3567;52.444;13.556;2024-01-15T04:39:25;7.68;;;4.70;;
7051;SDS011;3567;52.444;13.556;2024-01-15T04:41:51;7.55;;;4.15;;
7051;SDS011;3567;52.444;13.556;2024-01-15T04:44:16;11.23;;;4.20;;
7051;SDS011;3567;52.444;13.556;2024-01-15T04:46:42;12.43;;;5.25;;
7051;SDS011;3567;52.444;13.556;2024-01-15T04:49:08;7.60;;;4.30;;
7051;SDS011;3567;52.444;13.556;2024-01-15T04:51:34;13.70;;;4.53;;
7051;SDS011;3567;52.444;13.556;2024-01-15T04:53:59;12.48;;;4.10;;
7051;SDS011;3567;52.444;13.556;2024-01-15T04:56:25;7.55;;;3.95;;
7051;SDS011;3567;52.444;13.556;2024-01-15T04:58:50;8.60;;;3.83;;
7051;SDS011;3567;52.444;13.556;2024-01-15T05:01:16;17.52;;;4.35;;
7051;SDS011;3567;52.444;13.556;2024-01-15T05:03:42;12.10;;;3.83;;
7051;SDS011;3567;52.444;13.556;2024-01-15T05:06:07;6.88;;;3.17;;
7051;SDS011;3567;52.444;13.556;2024-01-15T05:08:34;9.27;;;3.72;;
7051;SDS011;3567;52.444;13.556;2024-01-15T05:10:59;8.27;;;3.60;;
7051;SDS011;3567;52.444;13.556;2024-01-15T05:13:24;9.80;;;4.20;;
7051;SDS011;3567;52.444;13.556;2024-01-15T05:15:50;8.00;;;3.30;;
7051;SDS011;3567;52.444;13.556;2024-01-15T05:18:15;8.20;;;3.08;;
7051;SDS011;3567;52.444;13.556;2024-01-15T05:20:41;9.43;;;3.13;;
7051;SDS011;3567;52.444;13.556;2024-01-15T05:23:07;7.93;;;3.90;;
7051;SDS011;3567;52.444;13.556;2024-01-15T05:25:32;7.38;;;3.10;;
7051;SDS011;3567;52.444;13.556;2024-01-15T05:27:58;10.70;;;3.00;;
7051;SDS011;3567;52.444;13.556;2024-01-15T05:30:23;5.82;;;3.03;;
7051;SDS011;3567;52.444;13.556;2024-01-15T05:32:49;9.57;;;2.70;;
7051;SDS011;3567;52.444;13.556;2024-01-15T05:35:14;9.90;;;3.05;;
7051;SDS011;3567;52.444;13.556;2024-01-15T05:37:42;5.97;;;2.58;;
7051;SDS011;3567;52.444;13.556;2024-01-15T05:40:09;13.55;;;3.35;;
7051;SDS011;3567;52.444;13.556;2024-01-15T05:42:34;9.73;;;2.88;;
7051;SDS011;3567;52.444;13.556;2024-01-15T05:45:00;10.18;;;2.85;;
7051;SDS011;3567;52.444;13.556;2024-01-15T05:47:27;9.65;;;3.13;;
7051;SDS011;3567;52.444;13.556;2024-01-15T05:49:53;6.25;;;2.63;;
7051;SDS011;3567;52.444;13.556;2024-01-15T05:52:19;4.75;;;2.25;;
7051;SDS011;3567;52.444;13.556;2024-01-15T05:54:46;9.15;;;2.53;;
7051;SDS011;3567;52.444;13.556;2024-01-15T05:57:12;9.15;;;2.67;;
7051;SDS011;3567;52.444;13.556;2024-01-15T05:59:37;7.28;;;2.83;;
7051;SDS011;3567;52.444;13.556;2024-01-15T06:02:03;9.40;;;3.10;;
7051;SDS011;3567;52.444;13.556;2024-01-15T06:04:28;6.28;;;2.42;;
7051;SDS011;3567;52.444;13.556;2024-01-15T06:06:53;6.03;;;2.80;;
7051;SDS011;3567;52.444;13.556;2024-01-15T06:09:19;8.73;;;2.50;;
7051;SDS011;3567;52.444;13.556;2024-01-15T06:11:44;5.82;;;2.65;;
7051;SDS011;3567;52.444;13.556;2024-01-15T06:14:09;5.65;;;2.55;;
7051;SDS011;3567;52.444;13.556;2024-01-15T06:16:35;12.07;;;3.35;;
7051;SDS011;3567;52.444;13.556;2024-01-15T06:19:00;8.70;;;2.60;;
7051;SDS011;3567;52.444;13.556;2024-01-15T06:21:25;10.88;;;2.17;;
7051;SDS011;3567;52.444;13.556;2024-01-15T06:23:51;7.00;;;2.17;;
7051;SDS011;3567;52.444;13.556;2024-01-15T06:26:16;7.40;;;2.33;;
7051;SDS011;3567;52.444;13.556;2024-01-15T06:28:42;6.93;;;1.58;;
7051;SDS011;3567;52.444;13.556;2024-01-15T06:31:07;12.52;;;2.15;;
7051;SDS011;3567;52.444;13.556;2024-01-15T06:33:33;9.48;;;2.03;;
7051;SDS011;3567;52.444;13.556;2024-01-15T06:35:58;5.65;;;2.40;;
7051;SDS011;3567;52.444;13.556;2024-01-15T06:38:23;5.60;;;1.95;;
7051;SDS011;3567;52.444;13.556;2024-01-15T06:40:50;8.35;;;1.95;;
7051;SDS011;3567;52.444;13.556;2024-01-15T06:43:16;10.75;;;2.33;;
7051;SDS011;3567;52.444;13.556;2024-01-15T06:45:42;10.13;;;2.33;;
7051;SDS011;3567;52.444;13.556;2024-01-15T06:48:08;12.73;;;1.67;;
7051;SDS011;3567;52.444;13.556;2024-01-15T06:50:34;6.78;;;2.10;;
7051;SDS011;3567;52.444;13.556;2024-01-15T06:52:59;10.07;;;1.88;;
7051;SDS011;3567;52.444;13.556;2024-01-15T06:55:25;8.35;;;2.53;;
7051;SDS011;3567;52.444;13.556;2024-01-15T06:57:50;7.95;;;2.22;;
7051;SDS011;3567;52.444;13.556;2024-01-15T07:00:16;6.68;;;2.05;;
7051;SDS011;3567;52.444;13.556;2024-01-15T07:02:44;11.20;;;2.33;;
7051;SDS011;3567;52.444;13.556;2024-01-15T07:05:10;7.47;;;1.73;;
7051;SDS011;3567;52.444;13.556;2024-01-15T07:07:36;9.45;;;1.70;;
7051;SDS011;3567;52.444;13.556;2024-01-15T07:10:01;6.53;;;1.25;;
7051;SDS011;3567;52.444;13.556;2024-01-15T07:12:28;11.98;;;2.03;;
7051;SDS011;3567;52.444;13.556;2024-01-15T07:14:54;11.38;;;2.00;;
7051;SDS011;3567;52.444;13.556;2024-01-15T07:17:20;4.85;;;1.13;;
7051;SDS011;3567;52.444;13.556;2024-01-15T07:19:45;5.82;;;1.23;;
7051;SDS011;3567;52.444;13.556;2024-01-15T07:22:11;6.25;;;1.40;;
7051;SDS011;3567;52.444;13.556;2024-01-15T07:24:37;3.40;;;1.13;;
7051;SDS011;3567;52.444;13.556;2024-01-15T07:27:02;5.45;;;1.23;;
7051;SDS011;3567;52.444;13.556;2024-01-15T07:29:29;5.35;;;1.70;;
7051;SDS011;3567;52.444;13.556;2024-01-15T07:31:55;5.72;;;1.23;;
7051;SDS011;3567;52.444;13.556;2024-01-15T07:34:20;7.60;;;1.17;;
7051;SDS011;3567;52.444;13.556;2024-01-15T07:36:46;14.20;;;1.10;;
7051;SDS011;3567;52.444;13.556;2024-01-15T07:39:12;8.52;;;1.30;;
7051;SDS011;3567;52.444;13.556;2024-01-15T07:41:38;10.18;;;1.33;;
7051;SDS011;3567;52.444;13.556;2024-01-15T07:44:04;9.10;;;1.80;;
7051;SDS011;3567;52.444;13.556;2024-01-15T07:46:30;8.65;;;1.75;;
7051;SDS011;3567;52.444;13.556;2024-01-15T07:48:55;10.95;;;1.70;;
7051;SDS011;3567;52.444;13.556;2024-01-15T07:51:23;10.35;;;1.30;;
7051;SDS011;3567;52.444;13.556;2024-01-15T07:53:49;5.75;;;1.20;;
7051;SDS011;3567;52.444;13.556;2024-01-15T07:56:15;12.00;;;1.35;;
7051;SDS011;3567;52.444;13.556;2024-01-15T07:58:46;17.38;;;2.10;;
7051;SDS011;3567;52.444;13.556;2024-01-15T08:01:11;10.73;;;1.70;;
7051;SDS011;3567;52.444;13.556;2024-01-15T08:03:37;9.80;;;1.40;;
7051;SDS011;3567;52.444;13.556;2024-01-15T08:06:02;7.70;;;1.17;;
7051;SDS011;3567;52.444;13.556;2024-01-15T08:08:28;12.20;;;1.60;;
7051;SDS011;3567;52.444;13.556;2024-01-15T08:10:53;9.05;;;1.52;;
7051;SDS011;3567;52.444;13.556;2024-01-15T08:13:19;9.38;;;1.98;;
7051;SDS011;3567;52.444;13.556;2024-01-15T08:15:45;11.00;;;1.48;;
7051;SDS011;3567;52.444;13.556;2024-01-15T08:18:11;9.43;;;0.98;;
7051;SDS011;3567;52.444;13.556;2024-01-15T08:20:37;11.02;;;2.17;;
7051;SDS011;3567;52.444;13.556;2024-01-15T08:23:02;10.13;;;1.00;;
7051;SDS011;3567;52.444;13.556;2024-01-15T08:25:28;11.98;;;1.60;;
7051;SDS011;3567;52.444;13.556;2024-01-15T08:27:53;9.10;;;1.38;;
7051;SDS011;3567;52.444;13.556;2024-01-15T08:30:20;9.65;;;1.25;;
7051;SDS011;3567;52.444;13.556;2024-01-15T08:32:47;10.18;;;1.85;;
7051;SDS011;3567;52.444;13.556;2024-01-15T08:35:12;13.05;;;1.45;;
7051;SDS011;3567;52.444;13.556;2024-01-15T08:37:38;4.18;;;0.90;;
7051;SDS011;3567;52.444;13.556;2024-01-15T08:40:04;6.13;;;1.30;;
7051;SDS011;3567;52.444;13.556;2024-01-15T08:42:29;12.88;;;1.45;;
7051;SDS011;3567;52.444;13.556;2024-01-15T08:44:55;8.32;;;1.35;;
7051;SDS011;3567;52.444;13.556;2024-01-15T08:47:20;4.85;;;1.42;;
7051;SDS011;3567;52.444;13.556;2024-01-15T08:49:46;7.22;;;1.40;;
7051;SDS011;3567;52.444;13.556;2024-01-15T08:52:11;8.52;;;1.50;;
7051;SDS011;3567;52.444;13.556;2024-01-15T08:54:37;5.50;;;1.00;;
7051;SDS011;3567;52.444;13.556;2024-01-15T08:57:02;4.03;;;1.25;;
7051;SDS011;3567;52.444;13.556;2024-01-15T08:59:28;7.45;;;1.45;;
7051;SDS011;3567;52.444;13.556;2024-01-15T09:01:53;5.32;;;1.77;;
7051;SDS011;3567;52.444;13.556;2024-01-15T09:04:19;14.10;;;1.75;;
7051;SDS011;3567;52.444;13.556;2024-01-15T09:06:47;6.78;;;1.20;;
7051;SDS011;3567;52.444;13.556;2024-01-15T09:09:13;6.78;;;0.90;;
7051;SDS011;3567;52.444;13.556;2024-01-15T09:11:39;11.23;;;1.52;;
7051;SDS011;3567;52.444;13.556;2024-01-15T09:14:05;7.72;;;1.40;;
7051;SDS011;3567;52.444;13.556;2024-01-15T09:16:31;6.90;;;1.13;;
7051;SDS011;3567;52.444;13.556;2024-01-15T09:18:56;8.15;;;1.17;;
7051;SDS011;3567;52.444;13.556;2024-01-15T09:21:24;12.15;;;1.88;;
7051;SDS011;3567;52.444;13.556;2024-01-15T09:23:50;8.93;;;1.17;;
7051;SDS011;3567;52.444;13.556;2024-01-15T09:26:16;8.90;;;1.42;;
7051;SDS011;3567;52.444;13.556;2024-01-15T09:28:42;5.65;;;1.13;;
7051;SDS011;3567;52.444;13.556;2024-01-15T09:31:08;9.30;;;1.58;;
7051;SDS011;3567;52.444;13.556;2024-01-15T09:33:33;9.70;;;1.75;;
7051;SDS011;3567;52.444;13.556;2024-01-15T09:36:02;8.43;;;1.33;;
7051;SDS011;3567;52.444;13.556;2024-01-15T09:38:31;8.35;;;1.58;;
7051;SDS011;3567;52.444;13.556;2024-01-15T09:40:57;8.38;;;1.17;;
7051;SDS011;3567;52.444;13.556;2024-01-15T09:43:22;12.02;;;1.85;;
7051;SDS011;3567;52.444;13.556;2024-01-15T09:45:48;8.07;;;1.65;;
7051;SDS011;3567;52.444;13.556;2024-01-15T09:48:14;8.45;;;1.45;;
7051;SDS011;3567;52.444;13.556;2024-01-15T09:50:41;10.77;;;1.52;;
7051;SDS011;3567;52.444;13.556;2024-01-15T09:53:07;6.97;;;1.30;;
7051;SDS011;3567;52.444;13.556;2024-01-15T09:55:34;3.13;;;0.93;;
7051;SDS011;3567;52.444;13.556;2024-01-15T09:58:01;9.13;;;1.48;;
7051;SDS011;3567;52.444;13.556;2024-01-15T10:00:27;5.10;;;1.00;;
7051;SDS011;3567;52.444;13.556;2024-01-15T10:02:55;6.95;;;1.30;;
7051;SDS011;3567;52.444;13.556;2024-01-15T10:05:21;3.05;;;0.80;;
7051;SDS011;3567;52.444;13.556;2024-01-15T10:07:46;2.83;;;0.90;;
7051;SDS011;3567;52.444;13.556;2024-01-15T10:10:15;5.03;;;1.42;;
7051;SDS011;3567;52.444;13.556;2024-01-15T10:12:40;8.18;;;1.60;;
7051;SDS011;3567;52.444;13.556;2024-01-15T10:15:09;5.30;;;1.05;;
7051;SDS011;3567;52.444;13.556;2024-01-15T10:17:36;4.95;;;0.98;;
7051;SDS011;3567;52.444;13.556;2024-01-15T10:20:06;4.00;;;1.27;;
7051;SDS011;3567;52.444;13.556;2024-01-15T10:22:33;5.13;;;0.98;;
7051;SDS011;3567;52.444;13.556;2024-01-15T10:24:59;4.85;;;1.13;;
7051;SDS011;3567;52.444;13.556;2024-01-15T10:27:24;6.63;;;1.30;;
7051;SDS011;3567;52.444;13.556;2024-01-15T10:29:49;5.53;;;1.50;;
7051;SDS011;3567;52.444;13.556;2024-01-15T10:32:14;1.98;;;1.08;;
7051;SDS011;3567;52.444;13.556;2024-01-15T10:34:40;6.88;;;1.15;;
7051;SDS011;3567;52.444;13.556;2024-01-15T10:37:09;2.25;;;0.60;;
7051;SDS011;3567;52.444;13.556;2024-01-15T10:39:34;4.43;;;1.15;;
7051;SDS011;3567;52.444;13.556;2024-01-15T10:42:00;2.20;;;1.15;;
7051;SDS011;3567;52.444;13.556;2024-01-15T10:44:25;4.10;;;1.02;;
7051;SDS011;3567;52.444;13.556;2024-01-15T10:46:50;5.30;;;1.20;;
7051;SDS011;3567;52.444;13.556;2024-01-15T10:49:18;6.90;;;1.10;;
7051;SDS011;3567;52.444;13.556;2024-01-15T10:51:45;2.75;;;0.90;;
7051;SDS011;3567;52.444;13.556;2024-01-15T10:54:12;4.07;;;0.90;;
7051;SDS011;3567;52.444;13.556;2024-01-15T10:56:38;3.28;;;0.70;;
7051;SDS011;3567;52.444;13.556;2024-01-15T10:59:04;9.68;;;1.33;;
7051;SDS011;3567;52.444;13.556;2024-01-15T11:01:30;4.20;;;0.90;;
7051;SDS011;3567;52.444;13.556;2024-01-15T11:03:56;3.25;;;1.02;;
7051;SDS011;3567;52.444;13.556;2024-01-15T11:06:23;3.00;;;1.00;;
7051;SDS011;3567;52.444;13.556;2024-01-15T11:08:50;4.60;;;0.70;;
7051;SDS011;3567;52.444;13.556;2024-01-15T11:11:17;3.53;;;1.23;;
7051;SDS011;3567;52.444;13.556;2024-01-15T11:13:43;2.90;;;0.85;;
7051;SDS011;3567;52.444;13.556;2024-01-15T11:16:11;3.50;;;0.88;;
7051;SDS011;3567;52.444;13.556;2024-01-15T11:18:42;4.20;;;0.88;;
7051;SDS011;3567;52.444;13.556;2024-01-15T11:21:23;2.95;;;0.50;;
7051;SDS011;3567;52.444;13.556;2024-01-15T11:23:54;2.47;;;0.88;;
7051;SDS011;3567;52.444;13.556;2024-01-15T11:26:30;1.25;;;0.40;;
7051;SDS011;3567;52.444;13.556;2024-01-15T11:29:10;5.55;;;0.52;;
7051;SDS011;3567;52.444;13.556;2024-01-15T11:31:57;2.28;;;0.60;;
7051;SDS011;3567;52.444;13.556;2024-01-15T11:37:15;1.40;;;0.70;;
7051;SDS011;3567;52.444;13.556;2024-01-15T11:39:41;3.50;;;0.73;;
7051;SDS011;3567;52.444;13.556;2024-01-15T11:42:11;1.75;;;0.50;;
7051;SDS011;3567;52.444;13.556;2024-01-15T11:44:38;4.22;;;0.70;;
7051;SDS011;3567;52.444;13.556;2024-01-15T11:47:07;5.57;;;0.70;;
7051;SDS011;3567;52.444;13.556;2024-01-15T11:52:21;1.90;;;0.70;;
7051;SDS011;3567;52.444;13.556;2024-01-15T11:54:55;5.32;;;0.98;;
7051;SDS011;3567;52.444;13.556;2024-01-15T11:57:42;1.85;;;0.60;;
7051;SDS011;3567;52.444;13.556;2024-01-15T12:00:09;1.17;;;0.70;;
7051;SDS011;3567;52.444;13.556;2024-01-15T12:02:36;1.77;;;0.80;;
7051;SDS011;3567;52.444;13.556;2024-01-15T12:05:02;2.05;;;0.93;;
7051;SDS011;3567;52.444;13.556;2024-01-15T12:07:28;1.52;;;0.88;;
7051;SDS011;3567;52.444;13.556;2024-01-15T12:09:53;1.67;;;0.57;;
7051;SDS011;3567;52.444;13.556;2024-01-15T12:12:29;2.05;;;0.75;;
7051;SDS011;3567;52.444;13.556;2024-01-15T12:15:07;4.70;;;1.30;;
7051;SDS011;3567;52.444;13.556;2024-01-15T12:17:33;2.67;;;0.85;;
7051;SDS011;3567;52.444;13.556;2024-01-15T12:19:59;2.45;;;0.70;;
7051;SDS011;3567;52.444;13.556;2024-01-15T12:22:25;2.25;;;0.75;;
7051;SDS011;3567;52.444;13.556;2024-01-15T12:24:52;1.33;;;0.52;;
7051;SDS011;3567;52.444;13.556;2024-01-15T12:27:18;1.75;;;0.73;;
7051;SDS011;3567;52.444;13.556;2024-01-15T12:29:43;1.52;;;0.70;;
7051;SDS011;3567;52.444;13.556;2024-01-15T12:32:08;2.08;;;1.00;;
7051;SDS011;3567;52.444;13.556;2024-01-15T12:34:34;0.60;;;0.60;;
7051;SDS011;3567;52.444;13.556;2024-01-15T12:36:59;2.90;;;0.93;;
7051;SDS011;3567;52.444;13.556;2024-01-15T12:39:25;2.47;;;0.80;;
7051;SDS011;3567;52.444;13.556;2024-01-15T12:41:51;3.60;;;0.73;;
7051;SDS011;3567;52.444;13.556;2024-01-15T12:44:16;2.05;;;0.90;;
7051;SDS011;3567;52.444;13.556;2024-01-15T12:46:42;2.83;;;0.90;;
7051;SDS011;3567;52.444;13.556;2024-01-15T12:49:07;2.92;;;0.80;;
7051;SDS011;3567;52.444;13.556;2024-01-15T12:51:34;0.88;;;0.40;;
7051;SDS011;3567;52.444;13.556;2024-01-15T12:54:00;2.25;;;0.50;;
7051;SDS011;3567;52.444;13.556;2024-01-15T12:56:25;1.15;;;0.50;;
7051;SDS011;3567;52.444;13.556;2024-01-15T12:58:50;2.03;;;0.50;;
7051;SDS011;3567;52.444;13.556;2024-01-15T13:01:16;0.90;;;0.70;;
7051;SDS011;3567;52.444;13.556;2024-01-15T13:03:41;1.85;;;0.98;;
7051;SDS011;3567;52.444;13.556;2024-01-15T13:06:07;1.25;;;0.43;;
7051;SDS011;3567;52.444;13.556;2024-01-15T13:08:32;0.63;;;0.60;;
7051;SDS011;3567;52.444;13.556;2024-01-15T13:10:57;0.57;;;0.50;;
7051;SDS011;3567;52.444;13.556;2024-01-15T13:13:23;1.15;;;0.63;;
7051;SDS011;3567;52.444;13.556;2024-01-15T13:15:48;0.88;;;0.75;;
7051;SDS011;3567;52.444;13.556;2024-01-15T13:18:14;0.90;;;0.55;;
7051;SDS011;3567;52.444;13.556;2024-01-15T13:20:39;0.82;;;0.50;;
7051;SDS011;3567;52.444;13.556;2024-01-15T13:23:05;1.75;;;0.70;;
7051;SDS011;3567;52.444;13.556;2024-01-15T13:25:30;4.65;;;0.80;;
7051;SDS011;3567;52.444;13.556;2024-01-15T13:27:56;1.23;;;0.75;;
7051;SDS011;3567;52.444;13.556;2024-01-15T13:30:21;0.93;;;0.68;;
7051;SDS011;3567;52.444;13.556;2024-01-15T13:32:47;0.68;;;0.60;;
7051;SDS011;3567;52.444;13.556;2024-01-15T13:35:12;2.92;;;0.50;;
7051;SDS011;3567;52.444;13.556;2024-01-15T13:37:38;1.33;;;0.55;;
7051;SDS011;3567;52.444;13.556;2024-01-15T13:40:06;2.00;;;0.70;;
7051;SDS011;3567;52.444;13.556;2024-01-15T13:42:33;0.60;;;0.60;;
7051;SDS011;3567;52.444;13.556;2024-01-15T13:45:04;2.47;;;1.13;;
7051;SDS011;3567;52.444;13.556;2024-01-15T13:47:31;1.55;;;0.70;;
7051;SDS011;3567;52.444;13.556;2024-01-15T13:49:56;0.70;;;0.68;;
7051;SDS011;3567;52.444;13.556;2024-01-15T13:52:22;1.75;;;0.80;;
7051;SDS011;3567;52.444;13.556;2024-01-15T13:54:47;3.25;;;0.85;;
7051;SDS011;3567;52.444;13.556;2024-01-15T13:57:13;4.32;;;0.82;;
7051;SDS011;3567;52.444;13.556;2024-01-15T13:59:39;4.85;;;0.98;;
7051;SDS011;3567;52.444;13.556;2024-01-15T14:02:05;3.22;;;1.20;;
7051;SDS011;3567;52.444;13.556;2024-01-15T14:04:30;1.38;;;0.80;;
7051;SDS011;3567;52.444;13.556;2024-01-15T14:06:55;4.57;;;0.80;;
7051;SDS011;3567;52.444;13.556;2024-01-15T14:09:22;4.38;;;1.00;;
7051;SDS011;3567;52.444;13.556;2024-01-15T14:11:48;4.80;;;0.90;;
7051;SDS011;3567;52.444;13.556;2024-01-15T14:14:14;5.25;;;1.20;;
7051;SDS011;3567;52.444;13.556;2024-01-15T14:16:39;4.15;;;1.20;;
7051;SDS011;3567;52.444;13.556;2024-01-15T14:19:05;6.40;;;1.00;;
7051;SDS011;3567;52.444;13.556;2024-01-15T14:21:31;3.63;;;0.93;;
7051;SDS011;3567;52.444;13.556;2024-01-15T14:23:57;3.28;;;1.00;;
7051;SDS011;3567;52.444;13.556;2024-01-15T14:26:22;4.35;;;1.08;;
7051;SDS011;3567;52.444;13.556;2024-01-15T14:28:47;7.35;;;1.20;;
7051;SDS011;3567;52.444;13.556;2024-01-15T14:31:13;2.97;;;0.85;;
7051;SDS011;3567;52.444;13.556;2024-01-15T14:33:38;3.83;;;1.45;;
7051;SDS011;3567;52.444;13.556;2024-01-15T14:36:04;5.05;;;1.13;;
7051;SDS011;3567;52.444;13.556;2024-01-15T14:38:30;4.22;;;1.00;;
7051;SDS011;3567;52.444;13.556;2024-01-15T14:40:55;4.35;;;1.55;;
7051;SDS011;3567;52.444;13.556;2024-01-15T14:43:20;6.32;;;1.10;;
7051;SDS011;3567;52.444;13.556;2024-01-15T14:45:46;2.42;;;0.95;;
7051;SDS011;3567;52.444;13.556;2024-01-15T14:48:11;3.92;;;0.75;;
7051;SDS011;3567;52.444;13.556;2024-01-15T14:50:38;3.22;;;1.05;;